Time;durP1;ratioP1;P1;durP2;ratioP2;P2;SDS_P1;SDS_P2;PMS_P1;PMS_P2;Temp;Humidity;BMP_temperature;BMP_pressure;BME280_temperature;BME280_humidity;BME280_pressure;Samples;Min_cycle;Max_cycle;Signal;HPM_P1;HPM_P2
2019/05/05 00:05:27;;;;;;;8.3;6.5;;;;;;;;;;;;;
2019/05/05 00:07:37;;;;;;;9.6;6.5;;;;;;;;;;;;;
2019/05/05 00:10:03;;;;;;;8.3;5.7;;;;;;;;;;;;;
2019/05/05 00:21:40;;;;;;;7.7;6;;;;;;;;;;;;;
2019/05/05 00:24:05;;;;;;;7.7;6.2;;;;;;;;;;;;;
2019/05/05 00:26:30;;;;;;;8.8;6.5;;;;;;;;;;;;;
2019/05/05 00:28:55;;;;;;;8.3;5.9;;;;;;;;;;;;;
2019/05/05 00:31:20;;;;;;;9;6.5;;;;;;;;;;;;;
2019/05/05 00:33:45;;;;;;;8.3;6.2;;;;;;;;;;;;;
2019/05/05 00:36:10;;;;;;;8.8;6.7;;;;;;;;;;;;;
2019/05/05 00:38:36;;;;;;;8.3;6.1;;;;;;;;;;;;;
2019/05/05 00:41:01;;;;;;;9.4;6.4;;;;;;;;;;;;;
2019/05/05 00:43:27;;;;;;;8.5;6;;;;;;;;;;;;;
2019/05/05 00:45:55;;;;;;;7.4;6.5;;;;;;;;;;;;;
2019/05/05 00:48:21;;;;;;;7.8;6.1;;;;;;;;;;;;;
2019/05/05 00:50:42;;;;;;;7.9;6.1;;;;;;;;;;;;;
2019/05/05 00:53:07;;;;;;;9.3;6.8;;;;;;;;;;;;;
2019/05/05 00:55:32;;;;;;;7.7;6.2;;;;;;;;;;;;;
2019/05/05 00:57:57;;;;;;;8.1;6.4;;;;;;;;;;;;;
2019/05/05 01:00:43;;;;;;;8.4;6.5;;;;;;;;;;;;;
2019/05/05 01:02:50;;;;;;;8.2;6;;;;;;;;;;;;;
2019/05/05 01:05:20;;;;;;;7.5;6.2;;;;;;;;;;;;;
2019/05/05 01:07:39;;;;;;;9.5;6.6;;;;;;;;;;;;;
2019/05/05 01:10:04;;;;;;;9.1;6.9;;;;;;;;;;;;;
2019/05/05 01:12:29;;;;;;;9.5;7.2;;;;;;;;;;;;;
2019/05/05 01:14:54;;;;;;;9.3;7;;;;;;;;;;;;;
2019/05/05 01:17:19;;;;;;;8.8;7.1;;;;;;;;;;;;;
2019/05/05 01:19:44;;;;;;;8.4;6.7;;;;;;;;;;;;;
2019/05/05 01:22:09;;;;;;;7.7;6.9;;;;;;;;;;;;;
2019/05/05 01:24:35;;;;;;;10.2;7;;;;;;;;;;;;;
2019/05/05 01:27:00;;;;;;;7.9;7.1;;;;;;;;;;;;;
2019/05/05 01:29:25;;;;;;;10.5;7;;;;;;;;;;;;;
2019/05/05 01:31:52;;;;;;;9;7.5;;;;;;;;;;;;;
2019/05/05 01:34:29;;;;;;;9.7;7.6;;;;;;;;;;;;;
2019/05/05 01:36:42;;;;;;;8.8;7;;;;;;;;;;;;;
2019/05/05 01:39:29;;;;;;;9.9;7.5;;;;;;;;;;;;;
2019/05/05 01:41:38;;;;;;;9;7.7;;;;;;;;;;;;;
2019/05/05 01:43:59;;;;;;;8.8;7.3;;;;;;;;;;;;;
2019/05/05 01:46:24;;;;;;;8.8;7.4;;;;;;;;;;;;;
2019/05/05 01:48:49;;;;;;;8.3;7.4;;;;;;;;;;;;;
2019/05/05 01:51:15;;;;;;;9.4;7.9;;;;;;;;;;;;;
2019/05/05 01:53:40;;;;;;;8.4;7.5;;;;;;;;;;;;;
2019/05/05 01:56:05;;;;;;;8.7;7.8;;;;;;;;;;;;;
2019/05/05 01:58:30;;;;;;;8.7;7.5;;;;;;;;;;;;;
2019/05/05 02:00:55;;;;;;;10.1;7.8;;;;;;;;;;;;;
2019/05/05 02:03:21;;;;;;;10.4;7.7;;;;;;;;;;;;;
2019/05/05 02:05:46;;;;;;;8.9;7.8;;;;;;;;;;;;;
2019/05/05 02:08:11;;;;;;;9.4;8.3;;;;;;;;;;;;;
2019/05/05 02:10:36;;;;;;;10.7;8.3;;;;;;;;;;;;;
2019/05/05 02:13:01;;;;;;;10;7.7;;;;;;;;;;;;;
2019/05/05 02:15:26;;;;;;;8.2;7.2;;;;;;;;;;;;;
2019/05/05 02:17:51;;;;;;;9.8;8.1;;;;;;;;;;;;;
2019/05/05 02:20:33;;;;;;;9.4;7.8;;;;;;;;;;;;;
2019/05/05 02:22:58;;;;;;;10.5;7.9;;;;;;;;;;;;;
2019/05/05 02:25:23;;;;;;;10.5;7.9;;;;;;;;;;;;;
2019/05/05 02:27:48;;;;;;;12.7;8.1;;;;;;;;;;;;;
2019/05/05 02:30:21;;;;;;;9.9;7.9;;;;;;;;;;;;;
2019/05/05 02:32:55;;;;;;;8.5;7.7;;;;;;;;;;;;;
2019/05/05 02:35:04;;;;;;;8.4;7.5;;;;;;;;;;;;;
2019/05/05 02:37:28;;;;;;;8.4;6.9;;;;;;;;;;;;;
2019/05/05 02:39:54;;;;;;;8.6;7.2;;;;;;;;;;;;;
2019/05/05 02:42:21;;;;;;;8.1;6.7;;;;;;;;;;;;;
2019/05/05 02:44:46;;;;;;;9.1;7.4;;;;;;;;;;;;;
2019/05/05 02:47:18;;;;;;;8.7;7.5;;;;;;;;;;;;;
2019/05/05 02:49:36;;;;;;;8.7;7.2;;;;;;;;;;;;;
2019/05/05 02:52:01;;;;;;;9.4;7.1;;;;;;;;;;;;;
2019/05/05 02:54:26;;;;;;;7.8;6.6;;;;;;;;;;;;;
2019/05/05 02:56:51;;;;;;;7.5;6.7;;;;;;;;;;;;;
2019/05/05 02:59:24;;;;;;;8.4;7.2;;;;;;;;;;;;;
2019/05/05 03:01:53;;;;;;;8;6.9;;;;;;;;;;;;;
2019/05/05 03:04:07;;;;;;;7.6;6.4;;;;;;;;;;;;;
2019/05/05 03:06:32;;;;;;;8;6.5;;;;;;;;;;;;;
2019/05/05 03:08:57;;;;;;;8.4;7.1;;;;;;;;;;;;;
2019/05/05 03:11:22;;;;;;;8;7;;;;;;;;;;;;;
2019/05/05 03:13:47;;;;;;;8.2;6.2;;;;;;;;;;;;;
2019/05/05 03:16:12;;;;;;;8.3;6.3;;;;;;;;;;;;;
2019/05/05 03:18:37;;;;;;;8.5;6.7;;;;;;;;;;;;;
2019/05/05 03:21:02;;;;;;;7.3;6.5;;;;;;;;;;;;;
2019/05/05 03:23:27;;;;;;;9;6.7;;;;;;;;;;;;;
2019/05/05 03:25:53;;;;;;;8.1;6.2;;;;;;;;;;;;;
2019/05/05 03:28:18;;;;;;;7;6.2;;;;;;;;;;;;;
2019/05/05 03:30:43;;;;;;;7.7;6.1;;;;;;;;;;;;;
2019/05/05 03:33:08;;;;;;;8.5;6.8;;;;;;;;;;;;;
2019/05/05 03:35:33;;;;;;;8;6.7;;;;;;;;;;;;;
2019/05/05 03:37:58;;;;;;;7.5;6.7;;;;;;;;;;;;;
2019/05/05 03:40:27;;;;;;;7.2;6.5;;;;;;;;;;;;;
2019/05/05 03:42:53;;;;;;;7.6;6.8;;;;;;;;;;;;;
2019/05/05 03:45:59;;;;;;;7.2;6.2;;;;;;;;;;;;;
2019/05/05 03:47:39;;;;;;;8;6.9;;;;;;;;;;;;;
2019/05/05 03:50:04;;;;;;;8.1;7.2;;;;;;;;;;;;;
2019/05/05 03:52:29;;;;;;;7.7;6.8;;;;;;;;;;;;;
2019/05/05 03:54:54;;;;;;;8.1;6.4;;;;;;;;;;;;;
2019/05/05 03:57:19;;;;;;;7.8;6.6;;;;;;;;;;;;;
2019/05/05 03:59:44;;;;;;;7.4;6.6;;;;;;;;;;;;;
2019/05/05 04:02:39;;;;;;;8;7.2;;;;;;;3.48;83.72461;956.7986;;;;
2019/05/05 04:04:52;;;;;;;8.6;7.6;;;;;;;3.53;84.73145;956.7952;;;;
2019/05/05 04:07:18;;;;;;;9.1;7.9;;;;;;;3.53;83.24902;956.7395;;;;
2019/05/05 04:09:43;;;;;;;10.2;8.5;;;;;;;3.45;85.19141;956.8345;;;;
2019/05/05 04:12:08;;;;;;;9.1;7.7;;;;;;;3.41;84.0957;956.8631;;;;
2019/05/05 04:14:33;;;;;;;10.2;8;;;;;;;3.42;84.94824;956.9138;;;;
2019/05/05 04:23:49;;;;;;;9.7;8.2;;;;;;;3.45;85.58691;956.8908;;;;
2019/05/05 04:26:14;;;;;;;9.3;8.3;;;;;;;3.45;85.1123;956.9382;;;;
2019/05/05 04:28:40;;;;;;;9.5;8.4;;;;;;;3.49;85.93457;956.9785;;;;
2019/05/05 04:31:05;;;;;;;8.7;7.8;;;;;;;3.51;84.86426;956.9899;;;;
2019/05/05 04:33:30;;;;;;;10;8.5;;;;;;;3.52;85.66992;957.0151;;;;
2019/05/05 04:35:55;;;;;;;10;8.5;;;;;;;3.46;86.32715;957.0184;;;;
2019/05/05 04:38:20;;;;;;;10.1;8.3;;;;;;;3.47;84.75488;957.0267;;;;
2019/05/05 04:40:47;;;;;;;10.4;8.7;;;;;;;3.57;85.0127;957.0287;;;;
2019/05/05 04:43:12;;;;;;;9.7;8.8;;;;;;;3.45;85.00977;957.0366;;;;
2019/05/05 04:45:37;;;;;;;9.4;8.4;;;;;;;3.47;85.79492;957.0999;;;;
2019/05/05 04:48:11;;;;;;;9.1;8.2;;;;;;;3.59;84.3252;957.1867;;;;
2019/05/05 04:51:12;;;;;;;10.9;8.6;;;;;;;3.6;84.10059;957.1733;;;;
2019/05/05 04:52:52;;;;;;;9.6;8.6;;;;;;;3.57;84.49023;957.1583;;;;
2019/05/05 04:55:17;;;;;;;9.6;8.6;;;;;;;3.55;84.75977;957.2452;;;;
2019/05/05 04:57:56;;;;;;;10.1;8.9;;;;;;;3.58;85.34277;957.2731;;;;
2019/05/05 05:00:22;;;;;;;10.6;9.3;;;;;;;3.5;85.5752;957.433;;;;
2019/05/05 05:02:58;;;;;;;11.6;10.5;;;;;;;3.53;85.93164;957.5212;;;;
2019/05/05 05:05:19;;;;;;;11;8.8;;;;;;;3.7;83.90625;957.5061;;;;
2019/05/05 05:07:39;;;;;;;10;8.8;;;;;;;3.69;84.97949;957.55;;;;
2019/05/05 05:10:04;;;;;;;10;9;;;;;;;3.69;84.60352;957.5845;;;;
2019/05/05 05:12:29;;;;;;;9.9;8.4;;;;;;;3.69;84.44531;957.5588;;;;
2019/05/05 05:14:54;;;;;;;10;9;;;;;;;3.74;86.83594;957.5895;;;;
2019/05/05 05:17:25;;;;;;;10;8.4;;;;;;;3.82;85.16309;957.6705;;;;
2019/05/05 05:19:44;;;;;;;9.1;8.2;;;;;;;3.75;82.97559;957.7436;;;;
2019/05/05 05:22:09;;;;;;;9.9;8.1;;;;;;;3.73;83.88965;957.7919;;;;
2019/05/05 05:24:34;;;;;;;8.6;7.7;;;;;;;3.69;83.6875;957.8248;;;;
2019/05/05 05:27:00;;;;;;;10.2;9.2;;;;;;;3.76;86.03516;957.8503;;;;
2019/05/05 05:29:25;;;;;;;8.6;7.2;;;;;;;3.82;84.59766;957.8979;;;;
2019/05/05 05:31:50;;;;;;;9.5;8.5;;;;;;;3.81;83.94824;957.895;;;;
2019/05/05 05:34:15;;;;;;;8.3;7.3;;;;;;;3.84;83.47949;957.8972;;;;
2019/05/05 05:36:41;;;;;;;8;6.8;;;;;;;3.89;82.50488;957.9196;;;;
2019/05/05 05:39:12;;;;;;;7.9;6.7;;;;;;;3.84;82.66406;957.8931;;;;
2019/05/05 05:41:44;;;;;;;8.5;7.7;;;;;;;3.69;84.05078;957.9496;;;;
2019/05/05 05:44:06;;;;;;;9;8.1;;;;;;;3.66;84.22656;957.9598;;;;
2019/05/05 05:46:42;;;;;;;9.7;7.7;;;;;;;3.76;84.63086;957.9921;;;;
2019/05/05 05:51:14;;;;;;;7.9;6.8;;;;;;;3.8;83.5166;958.0758;;;;
2019/05/05 05:53:36;;;;;;;8.3;7.4;;;;;;;3.87;83.73438;958.1789;;;;
2019/05/05 05:56:02;;;;;;;7.9;6.4;;;;;;;3.87;82.66016;958.1613;;;;
2019/05/05 05:58:27;;;;;;;8.2;7;;;;;;;3.97;83.73145;958.1555;;;;
2019/05/05 06:00:52;;;;;;;7.7;6.6;;;;;;;4.04;83.40723;958.2152;;;;
2019/05/05 06:03:17;;;;;;;7.7;6.9;;;;;;;3.86;82.68066;958.2222;;;;
2019/05/05 06:05:42;;;;;;;7.6;6.7;;;;;;;3.84;82.57324;958.2324;;;;
2019/05/05 06:08:07;;;;;;;7.3;5.9;;;;;;;3.9;82.37012;958.3229;;;;
2019/05/05 06:10:32;;;;;;;7.1;6.3;;;;;;;3.93;82.8291;958.2911;;;;
2019/05/05 06:12:59;;;;;;;6.9;6.2;;;;;;;4.08;83.43457;958.1957;;;;
2019/05/05 06:15:24;;;;;;;6.9;6.2;;;;;;;4.06;81.34766;958.2869;;;;
2019/05/05 06:17:49;;;;;;;6.9;5.5;;;;;;;4.04;81.61621;958.2756;;;;
2019/05/05 06:20:14;;;;;;;7.2;5.5;;;;;;;4.14;80.94141;958.3038;;;;
2019/05/05 06:22:39;;;;;;;6.9;5.8;;;;;;;4.1;81.29785;958.2888;;;;
2019/05/05 06:25:05;;;;;;;7;5.6;;;;;;;4.08;80.78418;958.3804;;;;
2019/05/05 06:27:30;;;;;;;6.2;5.6;;;;;;;4.11;80.93652;958.3655;;;;
2019/05/05 06:29:55;;;;;;;7.4;5.7;;;;;;;3.93;80.53809;958.386;;;;
2019/05/05 06:32:20;;;;;;;7.5;5.8;;;;;;;3.96;82.55273;958.4309;;;;
2019/05/05 06:34:45;;;;;;;6.6;5.3;;;;;;;4.09;80.92285;958.4783;;;;
2019/05/05 06:37:10;;;;;;;6.8;5.3;;;;;;;4.1;79.61914;958.5772;;;;
2019/05/05 06:39:35;;;;;;;7;5.2;;;;;;;4.17;78.72461;958.646;;;;
2019/05/05 06:42:07;;;;;;;6.1;5.5;;;;;;;4.02;80.69238;958.6599;;;;
2019/05/05 06:44:38;;;;;;;6.8;5.7;;;;;;;3.98;81.01465;958.752;;;;
2019/05/05 06:46:58;;;;;;;6.5;5.8;;;;;;;4.04;80.77539;958.783;;;;
2019/05/05 06:49:16;;;;;;;6.6;5.6;;;;;;;4.07;80.67969;958.7855;;;;
2019/05/05 06:51:41;;;;;;;6.1;5.5;;;;;;;4.21;80.71875;958.8148;;;;
2019/05/05 06:54:06;;;;;;;5.7;5.1;;;;;;;4.21;79.55078;958.8019;;;;
2019/05/05 06:56:31;;;;;;;8;5.8;;;;;;;4.23;82.35352;958.8914;;;;
2019/05/05 06:58:57;;;;;;;7.7;5.5;;;;;;;4.33;79.31152;959.0269;;;;
2019/05/05 07:01:22;;;;;;;6.7;5.4;;;;;;;4.3;80.40625;958.9168;;;;
2019/05/05 07:03:48;;;;;;;6.8;5.5;;;;;;;4.37;80.07617;958.9428;;;;
2019/05/05 07:06:14;;;;;;;6.2;5.6;;;;;;;4.34;81.44434;958.9492;;;;
2019/05/05 07:08:39;;;;;;;6.9;6.2;;;;;;;4.3;79.93066;958.9597;;;;
2019/05/05 07:11:04;;;;;;;7.5;5.9;;;;;;;4.32;81.2041;959.0275;;;;
2019/05/05 07:13:29;;;;;;;6.4;5.4;;;;;;;4.38;79.58105;958.9508;;;;
2019/05/05 07:15:54;;;;;;;6.9;5;;;;;;;4.46;78.34766;958.9414;;;;
2019/05/05 07:18:19;;;;;;;7.6;5.5;;;;;;;4.39;79.58203;958.9626;;;;
2019/05/05 07:20:44;;;;;;;6.8;5.6;;;;;;;4.47;78.97363;958.949;;;;
2019/05/05 07:23:10;;;;;;;5.7;5.1;;;;;;;4.45;79.7998;958.9457;;;;
2019/05/05 07:25:35;;;;;;;6.4;5.5;;;;;;;4.42;79.45117;958.9266;;;;
2019/05/05 07:28:02;;;;;;;6.9;5.2;;;;;;;4.47;79.39355;958.9707;;;;
2019/05/05 07:30:27;;;;;;;6.7;5.7;;;;;;;4.56;79.51172;959.0598;;;;
2019/05/05 07:32:52;;;;;;;7;5.7;;;;;;;4.66;79.04395;959.0527;;;;
2019/05/05 07:35:24;;;;;;;6.2;5.4;;;;;;;4.69;78.87891;959.1111;;;;
2019/05/05 07:37:42;;;;;;;7.4;5.7;;;;;;;4.67;78.12598;959.0525;;;;
2019/05/05 07:40:07;;;;;;;7.2;5.7;;;;;;;4.7;79.31152;959.1021;;;;
2019/05/05 07:42:32;;;;;;;6.6;5.5;;;;;;;4.76;78.9375;959.111;;;;
2019/05/05 07:44:57;;;;;;;6.6;5.2;;;;;;;4.76;76.27832;959.0988;;;;
2019/05/05 07:47:23;;;;;;;8.3;6;;;;;;;4.75;76.69922;959.1376;;;;
2019/05/05 07:49:48;;;;;;;7.2;5.5;;;;;;;4.73;77.10254;959.139;;;;
2019/05/05 07:52:13;;;;;;;6.6;5.5;;;;;;;4.72;77.08008;959.1696;;;;
2019/05/05 07:54:38;;;;;;;6.4;5.6;;;;;;;4.73;77.88574;959.1778;;;;
2019/05/05 07:57:03;;;;;;;8.1;5.8;;;;;;;4.79;78.38574;959.1613;;;;
2019/05/05 07:59:28;;;;;;;6.5;5.5;;;;;;;4.85;77.70313;959.1661;;;;
2019/05/05 08:01:53;;;;;;;6.2;5.6;;;;;;;4.87;76.79785;959.1602;;;;
2019/05/05 08:04:18;;;;;;;6.9;5.6;;;;;;;4.95;76.05273;959.2064;;;;
2019/05/05 08:06:44;;;;;;;6.8;5.5;;;;;;;5;74.66504;959.207;;;;
2019/05/05 08:09:09;;;;;;;7;5.2;;;;;;;4.98;74.60352;959.2132;;;;
2019/05/05 08:11:34;;;;;;;6.4;5.4;;;;;;;4.89;76.09668;959.2192;;;;
2019/05/05 08:13:59;;;;;;;7.2;5.6;;;;;;;4.96;75.38379;959.2017;;;;
2019/05/05 08:17:16;;;;;;;6.2;5.3;;;;;;;5.06;76.35547;959.2253;;;;
2019/05/05 08:21:14;;;;;;;7.2;5.3;;;;;;;5.18;76.56055;959.2471;;;;
2019/05/05 08:24:53;;;;;;;7;5.8;;;;;;;5.19;74.11816;959.2983;;;;
2019/05/05 08:26:13;;;;;;;7.2;5.6;;;;;;;5.12;74.37695;959.3117;;;;
2019/05/05 08:28:38;;;;;;;6.1;5.5;;;;;;;5.22;74.70215;959.2492;;;;
2019/05/05 08:31:03;;;;;;;7.6;6.2;;;;;;;5.22;74.86133;959.3309;;;;
2019/05/05 08:33:21;;;;;;;6.8;5.8;;;;;;;5.28;75.03027;959.3056;;;;
2019/05/05 08:35:46;;;;;;;5.7;5.1;;;;;;;5.35;73.95117;959.2615;;;;
2019/05/05 08:38:11;;;;;;;6.8;5.2;;;;;;;5.45;73.61719;959.2979;;;;
2019/05/05 08:40:36;;;;;;;6;5.2;;;;;;;5.46;74.08398;959.315;;;;
2019/05/05 08:43:01;;;;;;;6;5.1;;;;;;;5.44;73.04688;959.3074;;;;
2019/05/05 08:45:27;;;;;;;7;5.4;;;;;;;5.5;72.8418;959.2729;;;;
2019/05/05 08:47:52;;;;;;;6.3;5.1;;;;;;;5.74;71.7998;959.2656;;;;
2019/05/05 08:50:18;;;;;;;5.6;4.8;;;;;;;5.88;70.09277;959.2084;;;;
2019/05/05 08:52:43;;;;;;;6.1;5;;;;;;;5.93;71.57031;959.231;;;;
2019/05/05 08:55:08;;;;;;;5.7;5.1;;;;;;;6.06;71.80762;959.2654;;;;
2019/05/05 08:57:34;;;;;;;6;4.8;;;;;;;6.21;70.00977;959.2458;;;;
2019/05/05 08:59:59;;;;;;;6;5.1;;;;;;;6.37;70.84668;959.2216;;;;
2019/05/05 09:02:24;;;;;;;5.5;4.6;;;;;;;6.43;69.7041;959.2908;;;;
2019/05/05 09:04:49;;;;;;;6.7;5.1;;;;;;;6.47;69.00488;959.2014;;;;
2019/05/05 09:07:15;;;;;;;6.7;4.8;;;;;;;6.55;68.81152;959.2175;;;;
2019/05/05 09:09:40;;;;;;;6.9;4.8;;;;;;;6.49;69.39453;959.1961;;;;
2019/05/05 09:12:05;;;;;;;5.8;4.4;;;;;;;6.36;67.38086;959.2178;;;;
2019/05/05 09:14:30;;;;;;;6;4.3;;;;;;;6.24;67.99902;959.123;;;;
2019/05/05 09:16:56;;;;;;;5.9;4.8;;;;;;;6.39;68.90137;959.1816;;;;
2019/05/05 09:19:21;;;;;;;5;4.5;;;;;;;6.59;68.35059;959.1803;;;;
2019/05/05 09:21:46;;;;;;;5.2;4.2;;;;;;;6.58;67.83691;959.1462;;;;
2019/05/05 09:24:24;;;;;;;6.1;4.4;;;;;;;6.65;66.27246;959.1287;;;;
2019/05/05 09:26:48;;;;;;;6.2;4.3;;;;;;;6.6;65.11426;959.0883;;;;
2019/05/05 09:31:31;;;;;;;4.4;4;;;;;;;6.68;64.95508;959.0917;;;;
2019/05/05 09:33:56;;;;;;;4.9;4.3;;;;;;;6.61;66.90527;959.0187;;;;
2019/05/05 09:36:21;;;;;;;4.8;4;;;;;;;6.52;66.34473;959.0988;;;;
2019/05/05 09:38:46;;;;;;;6;4.1;;;;;;;6.5;67.22949;959.0833;;;;
2019/05/05 09:41:12;;;;;;;5.8;3.9;;;;;;;6.57;64.41309;959.0653;;;;
2019/05/05 09:43:37;;;;;;;5.5;3.7;;;;;;;6.62;66.16699;959.1215;;;;
2019/05/05 09:46:03;;;;;;;5.4;4;;;;;;;6.69;65.53809;959.0175;;;;
2019/05/05 09:48:28;;;;;;;4.6;3.4;;;;;;;6.7;60.77148;959.0728;;;;
2019/05/05 09:50:53;;;;;;;4.1;3.2;;;;;;;6.83;62.85449;959.0723;;;;
2019/05/05 09:53:18;;;;;;;4.7;3.4;;;;;;;7;62.5957;959.1072;;;;
2019/05/05 09:55:43;;;;;;;4.6;3.8;;;;;;;7.09;63.83008;959.0873;;;;
2019/05/05 09:58:09;;;;;;;5;3.7;;;;;;;7.08;64.91211;959.0406;;;;
2019/05/05 10:00:38;;;;;;;5.6;3.3;;;;;;;6.94;62.34668;959.1721;;;;
2019/05/05 10:03:00;;;;;;;4;3.5;;;;;;;6.69;64.40918;959.1381;;;;
2019/05/05 10:05:25;;;;;;;5.7;3.4;;;;;;;6.57;63.41113;959.1383;;;;
2019/05/05 10:07:50;;;;;;;4.3;3.2;;;;;;;6.58;63.53613;959.2371;;;;
2019/05/05 10:10:15;;;;;;;4;3.6;;;;;;;6.54;64.27344;959.2311;;;;
2019/05/05 10:12:40;;;;;;;4.1;3.4;;;;;;;6.61;64.79688;959.2216;;;;
2019/05/05 10:15:05;;;;;;;4.4;3.6;;;;;;;6.67;66.25293;959.2911;;;;
2019/05/05 10:17:30;;;;;;;4.2;3.4;;;;;;;6.72;64.10449;959.2961;;;;
2019/05/05 10:19:55;;;;;;;3.8;3.2;;;;;;;6.74;63.37891;959.2899;;;;
2019/05/05 10:22:20;;;;;;;4.1;3.2;;;;;;;6.8;63.70801;959.2424;;;;
2019/05/05 10:24:50;;;;;;;4.3;3.5;;;;;;;6.82;64.7373;959.3014;;;;
2019/05/05 10:27:10;;;;;;;4.6;3.4;;;;;;;6.79;62.99805;959.2692;;;;
2019/05/05 10:29:35;;;;;;;4.7;3.7;;;;;;;6.81;64.4834;959.3066;;;;
2019/05/05 10:32:01;;;;;;;4.4;3.2;;;;;;;6.98;64.01953;959.3155;;;;
2019/05/05 10:34:26;;;;;;;10.2;7.6;;;;;;;6.8;63.91211;959.3119;;;;
2019/05/05 10:36:53;;;;;;;6.2;4.8;;;;;;;6.6;64.79492;959.378;;;;
2019/05/05 10:39:33;;;;;;;5;3.8;;;;;;;6.69;63.81543;959.3414;;;;
2019/05/05 10:41:43;;;;;;;4.1;3.3;;;;;;;6.6;64.83984;959.3003;;;;
2019/05/05 10:44:09;;;;;;;4.5;3.6;;;;;;;6.53;67.04102;959.3272;;;;
2019/05/05 10:46:34;;;;;;;4;3.6;;;;;;;6.58;67.83691;959.3104;;;;
2019/05/05 10:48:59;;;;;;;4.6;3.6;;;;;;;6.57;66.52246;959.3373;;;;
2019/05/05 10:51:24;;;;;;;4.6;3.9;;;;;;;6.69;66.49609;959.3195;;;;
2019/05/05 10:53:49;;;;;;;4.7;3.5;;;;;;;6.73;65.33984;959.3385;;;;
2019/05/05 10:56:15;;;;;;;5.8;3.7;;;;;;;6.79;64.10547;959.2778;;;;
2019/05/05 10:58:40;;;;;;;4.4;3.8;;;;;;;6.82;64.4502;959.28;;;;
2019/05/05 11:01:05;;;;;;;4.1;3.6;;;;;;;6.98;63.24316;959.3373;;;;
2019/05/05 11:03:30;;;;;;;5.3;3.6;;;;;;;7.18;64.57422;959.2749;;;;
2019/05/05 11:05:55;;;;;;;4.4;3.8;;;;;;;7.54;60.95996;959.2267;;;;
2019/05/05 11:08:20;;;;;;;4.3;3.3;;;;;;;7.56;61.08887;959.3544;;;;
2019/05/05 11:10:46;;;;;;;3.6;3.3;;;;;;;7.53;59.4502;959.3698;;;;
2019/05/05 11:13:11;;;;;;;4.8;3.3;;;;;;;7.92;61.0127;959.3057;;;;
2019/05/05 11:15:36;;;;;;;3.8;3;;;;;;;8.72;57.66504;959.3384;;;;
2019/05/05 11:18:01;;;;;;;3.1;2.8;;;;;;;8.86;54.05176;959.2836;;;;
2019/05/05 11:20:26;;;;;;;4.5;2.9;;;;;;;8.65;54.26563;959.3091;;;;
2019/05/05 11:22:51;;;;;;;4.5;3.2;;;;;;;8.37;57.4248;959.2963;;;;
2019/05/05 11:25:16;;;;;;;3.3;2.7;;;;;;;8.26;55.84082;959.3097;;;;
2019/05/05 11:27:41;;;;;;;3.8;2.9;;;;;;;7.98;56.78906;959.3269;;;;
2019/05/05 11:30:12;;;;;;;3.3;2.9;;;;;;;7.94;56.93262;959.3689;;;;
2019/05/05 11:34:57;;;;;;;10;8;;;;;;;7.89;57.91113;959.3074;;;;
2019/05/05 11:37:23;;;;;;;5;3.5;;;;;;;8.11;57.89355;959.2999;;;;
2019/05/05 11:39:47;;;;;;;3.9;3;;;;;;;8.45;53.48438;959.3297;;;;
2019/05/05 11:42:12;;;;;;;3.4;2.7;;;;;;;9.36;53.49414;959.3075;;;;
2019/05/05 11:44:37;;;;;;;3.6;2.8;;;;;;;9.83;50.85254;959.2897;;;;
2019/05/05 11:47:02;;;;;;;3.1;2.6;;;;;;;9.63;51.11523;959.3113;;;;
2019/05/05 11:49:29;;;;;;;3.1;2.4;;;;;;;9.65;47.9248;959.2182;;;;
2019/05/05 11:51:54;;;;;;;3.6;2.4;;;;;;;9.56;47.07813;959.3602;;;;
2019/05/05 11:54:19;;;;;;;4.4;2.6;;;;;;;9.1;49.81445;959.3765;;;;
2019/05/05 11:56:44;;;;;;;3.8;2.6;;;;;;;8.68;50.35059;959.3627;;;;
2019/05/05 11:59:09;;;;;;;4;2.3;;;;;;;8.39;51.30078;959.3947;;;;
2019/05/05 12:01:35;;;;;;;3.3;2.5;;;;;;;8.2;50.59082;959.3836;;;;
2019/05/05 12:04:02;;;;;;;4.4;2.7;;;;;;;8.13;51.70605;959.345;;;;
2019/05/05 12:06:25;;;;;;;3.8;2.7;;;;;;;8.3;53.52148;959.3845;;;;
2019/05/05 12:08:50;;;;;;;3.9;2.8;;;;;;;8.37;52.84375;959.3661;;;;
2019/05/05 12:11:15;;;;;;;4;3;;;;;;;8.39;53.5;959.3777;;;;
2019/05/05 12:13:42;;;;;;;2.8;2.5;;;;;;;8.48;53.75098;959.3703;;;;
2019/05/05 12:16:08;;;;;;;3.6;3;;;;;;;8.46;51.9043;959.3372;;;;
2019/05/05 12:18:32;;;;;;;4.6;3.4;;;;;;;8.18;54.56152;959.3676;;;;
2019/05/05 12:20:57;;;;;;;4;3.3;;;;;;;8.15;53.99512;959.4138;;;;
2019/05/05 12:23:22;;;;;;;4;3.2;;;;;;;8.21;55.93848;959.387;;;;
2019/05/05 12:26:00;;;;;;;3.2;2.5;;;;;;;8.12;51.45117;959.3464;;;;
2019/05/05 12:28:34;;;;;;;3.3;2.6;;;;;;;8.13;52.53027;959.371;;;;
2019/05/05 12:30:38;;;;;;;4;2.5;;;;;;;8.4;49.87109;959.3762;;;;
2019/05/05 12:33:03;;;;;;;3;2.7;;;;;;;8.4;52.29883;959.355;;;;
2019/05/05 12:35:28;;;;;;;3.6;2.5;;;;;;;8.95;48.58105;959.3541;;;;
2019/05/05 12:37:54;;;;;;;3.2;2.5;;;;;;;9.48;47.10352;959.3538;;;;
2019/05/05 12:40:19;;;;;;;3.3;2.7;;;;;;;10.32;49.95605;959.3262;;;;
2019/05/05 12:42:44;;;;;;;2.6;2.3;;;;;;;10.7;42.15918;959.3274;;;;
2019/05/05 12:45:12;;;;;;;2.7;2.1;;;;;;;10.59;43.17188;959.368;;;;
2019/05/05 12:48:16;;;;;;;2.6;2.1;;;;;;;10.55;41.90234;959.3369;;;;
2019/05/05 12:50:00;;;;;;;3.2;2.5;;;;;;;9.99;45.70996;959.3286;;;;
2019/05/05 12:52:25;;;;;;;2.8;2.4;;;;;;;9.45;44.94141;959.2738;;;;
2019/05/05 12:54:50;;;;;;;2.6;2.4;;;;;;;9.09;47.37012;959.2605;;;;
2019/05/05 12:57:15;;;;;;;2.9;2.6;;;;;;;8.77;47.2998;959.408;;;;
2019/05/05 12:59:41;;;;;;;4;3.6;;;;;;;8.5;49.92773;959.4034;;;;
2019/05/05 13:02:06;;;;;;;4.1;2.8;;;;;;;8.22;53.34082;959.4335;;;;
2019/05/05 13:04:31;;;;;;;3.7;3.1;;;;;;;7.88;55.91797;959.4084;;;;
2019/05/05 13:06:56;;;;;;;3.9;3.5;;;;;;;7.82;60.61035;959.4562;;;;
2019/05/05 13:09:21;;;;;;;4.2;2.9;;;;;;;7.92;55.6709;959.4615;;;;
2019/05/05 13:11:46;;;;;;;4.1;3;;;;;;;7.92;53.76172;959.4956;;;;
2019/05/05 13:14:11;;;;;;;3.8;2.6;;;;;;;7.79;52.94434;959.4716;;;;
2019/05/05 13:16:36;;;;;;;3.8;2.5;;;;;;;7.96;51.99219;959.5148;;;;
2019/05/05 13:19:09;;;;;;;3.2;2.6;;;;;;;7.96;48.65332;959.389;;;;
2019/05/05 13:21:51;;;;;;;3.5;2.5;;;;;;;7.84;48.10254;959.4976;;;;
2019/05/05 13:28:44;;;;;;;2.9;2.6;;;;;;;8.15;50.96289;959.4048;;;;
2019/05/05 13:31:09;;;;;;;3.4;2.7;;;;;;;8.3;51.01563;959.3798;;;;
2019/05/05 13:33:34;;;;;;;4;2.7;;;;;;;8.45;52.90039;959.368;;;;
2019/05/05 13:35:59;;;;;;;3.2;2.7;;;;;;;8.54;49.94434;959.3954;;;;
2019/05/05 13:38:24;;;;;;;2.8;2.4;;;;;;;8.56;49.95703;959.4594;;;;
2019/05/05 13:40:49;;;;;;;4.5;2.6;;;;;;;8.42;49.69043;959.4224;;;;
2019/05/05 13:43:15;;;;;;;2.6;2.4;;;;;;;8.56;48.39941;959.5073;;;;
2019/05/05 13:45:45;;;;;;;2.8;2.5;;;;;;;8.72;50.83496;959.4642;;;;
2019/05/05 13:48:05;;;;;;;3.7;2.8;;;;;;;8.8;47.86426;959.4924;;;;
2019/05/05 13:50:33;;;;;;;2.6;2.4;;;;;;;8.8;49.48047;959.4705;;;;
2019/05/05 13:52:58;;;;;;;4.3;2.6;;;;;;;8.89;47.99023;959.5891;;;;
2019/05/05 13:55:24;;;;;;;3.2;2.3;;;;;;;9.04;44.9668;959.4774;;;;
2019/05/05 13:57:49;;;;;;;3.2;2.3;;;;;;;9.11;46.5;959.5147;;;;
2019/05/05 14:00:15;;;;;;;3;2.3;;;;;;;9.47;45.97656;959.4631;;;;
2019/05/05 14:02:40;;;;;;;2.7;2.3;;;;;;;9.72;46.39355;959.5076;;;;
2019/05/05 14:05:05;;;;;;;3.7;2.6;;;;;;;9.6;49.14844;959.5566;;;;
2019/05/05 14:07:30;;;;;;;3.5;2.7;;;;;;;8.98;51.39355;959.6124;;;;
2019/05/05 14:09:55;;;;;;;4.3;3;;;;;;;8.69;53.02051;959.5748;;;;
2019/05/05 14:12:20;;;;;;;4;3;;;;;;;8.34;54.44336;959.5934;;;;
2019/05/05 14:14:46;;;;;;;3.8;2.5;;;;;;;8.1;50.55762;959.685;;;;
2019/05/05 14:17:12;;;;;;;2.6;2.4;;;;;;;7.78;51.71973;959.7489;;;;
2019/05/05 14:19:38;;;;;;;2.8;2.4;;;;;;;7.6;53.76758;959.6932;;;;
2019/05/05 14:22:03;;;;;;;3.1;2.8;;;;;;;7.5;53.04688;959.7134;;;;
2019/05/05 14:24:33;;;;;;;3.3;2.8;;;;;;;7.46;53.04102;959.6911;;;;
2019/05/05 14:26:53;;;;;;;3.5;2.6;;;;;;;7.5;53.57227;959.6746;;;;
2019/05/05 14:32:53;;;;;;;3.4;2.4;;;;;;;7.85;52.95215;959.6178;;;;
2019/05/05 14:35:23;;;;;;;3.5;2.3;;;;;;;8.08;52.72852;959.579;;;;
2019/05/05 14:37:46;;;;;;;2.7;2.3;;;;;;;8.23;51.48828;959.5931;;;;
2019/05/05 14:40:08;;;;;;;3.4;2.7;;;;;;;8.45;51.51465;959.5717;;;;
2019/05/05 14:42:34;;;;;;;2.9;2.5;;;;;;;8.66;51.61914;959.6244;;;;
2019/05/05 14:44:59;;;;;;;3.7;2.5;;;;;;;8.73;51.03223;959.5758;;;;
2019/05/05 14:47:24;;;;;;;2.5;2.2;;;;;;;9.06;51.35742;959.5711;;;;
2019/05/05 14:49:49;;;;;;;3.5;2.6;;;;;;;9.02;53.41797;959.5955;;;;
2019/05/05 14:52:14;;;;;;;3;2.4;;;;;;;9.03;51.16016;959.5513;;;;
2019/05/05 14:54:39;;;;;;;2.9;2.2;;;;;;;9.14;48.79785;959.6204;;;;
2019/05/05 14:57:06;;;;;;;2.4;2;;;;;;;8.88;48.40234;959.6068;;;;
2019/05/05 14:59:31;;;;;;;3.3;2.2;;;;;;;8.83;50.67676;959.659;;;;
2019/05/05 15:01:57;;;;;;;2.7;2.2;;;;;;;8.93;53.68164;959.616;;;;
2019/05/05 15:04:22;;;;;;;3.3;2.6;;;;;;;9.05;51.17285;959.6326;;;;
2019/05/05 15:06:53;;;;;;;3.6;2.6;;;;;;;9.04;51.01172;959.6766;;;;
2019/05/05 15:09:22;;;;;;;4.8;2.7;;;;;;;8.91;51.45508;959.7039;;;;
2019/05/05 15:11:53;;;;;;;3.5;2.5;;;;;;;8.9;52.51855;959.7224;;;;
2019/05/05 15:14:03;;;;;;;2.8;2.5;;;;;;;8.78;51.9668;959.6365;;;;
2019/05/05 15:16:29;;;;;;;3.5;2.7;;;;;;;8.67;53.86621;959.6539;;;;
2019/05/05 15:18:54;;;;;;;3.4;2.6;;;;;;;8.64;52.03027;959.6994;;;;
2019/05/05 15:21:21;;;;;;;2.8;2.5;;;;;;;8.75;51.77832;959.6697;;;;
2019/05/05 15:23:46;;;;;;;3.3;2.7;;;;;;;8.77;52.19434;959.603;;;;
2019/05/05 15:26:12;;;;;;;3.1;2.7;;;;;;;8.68;53.07813;959.6747;;;;
2019/05/05 15:28:37;;;;;;;4.4;3.6;;;;;;;8.69;52.02539;959.6651;;;;
2019/05/05 15:31:05;;;;;;;8.9;6.3;;;;;;;8.54;54.26172;959.6863;;;;
2019/05/05 15:33:30;;;;;;;4.6;3.4;;;;;;;8.5;55.04785;959.7201;;;;
2019/05/05 15:35:56;;;;;;;3.2;2.9;;;;;;;8.44;54.99414;959.7291;;;;
2019/05/05 15:38:21;;;;;;;2.8;2.5;;;;;;;8.36;53.01465;959.7736;;;;
2019/05/05 15:40:46;;;;;;;3;2.5;;;;;;;8.31;53.87891;959.6909;;;;
2019/05/05 15:43:11;;;;;;;3;2.3;;;;;;;8.39;54.2998;959.7892;;;;
2019/05/05 15:45:36;;;;;;;3.3;2.6;;;;;;;8.33;54.4082;959.7241;;;;
2019/05/05 15:48:01;;;;;;;3.7;2.7;;;;;;;8.3;53.6377;959.7476;;;;
2019/05/05 15:50:26;;;;;;;2.9;2.6;;;;;;;8.31;53.44531;959.764;;;;
2019/05/05 15:52:51;;;;;;;3.2;2.9;;;;;;;8.17;53.19727;959.8145;;;;
2019/05/05 15:55:16;;;;;;;2.5;2;;;;;;;8.17;51.41211;959.7756;;;;
2019/05/05 15:57:41;;;;;;;2.2;1.8;;;;;;;8.15;52.51953;959.7944;;;;
2019/05/05 16:00:07;;;;;;;3.1;2.8;;;;;;;8.25;51.84473;959.7776;;;;
2019/05/05 16:02:32;;;;;;;3;2.4;;;;;;;8.17;52.55664;959.7756;;;;
2019/05/05 16:04:58;;;;;;;3.5;2.6;;;;;;;8.17;54.03223;959.8275;;;;
2019/05/05 16:07:24;;;;;;;3.1;2.3;;;;;;;8.33;52.38086;959.845;;;;
2019/05/05 16:09:49;;;;;;;3.1;2.8;;;;;;;8.27;54.02246;959.8279;;;;
2019/05/05 16:12:15;;;;;;;3.5;2.7;;;;;;;8.33;53.59473;959.8108;;;;